KAWO/AWO METAR and TAF weather

Enter ICAO airport designator
Station Type Date Time Source
KAWO METAR 2021/09/28 17:18 UTC NOAA

KAWO 281718Z AUTO 16008KT 10SM BKN009 BKN014 OVC041 13/12 A2998 RMK AO2


Station Type Date Time Source
KAWO Decoded METAR 2021/09/28 17:18 UTC NOAA

Arlington Municipal, WA, United States (KAWO) 48-10N 122-10W
Sep 28, 2021 - 01:18 PM EDT / 2021.09.28 1718 UTC
Wind: from the SSE (160 degrees) at 9 MPH (8 KT):0
Visibility: 10 mile(s):0
Sky conditions: overcast
Temperature: 55 F (13 C)
Dew Point: 53 F (12 C)
Relative Humidity: 93%
Pressure (altimeter): 29.98 in. Hg (1015 hPa)
ob: KAWO 281718Z AUTO 16008KT 10SM BKN009 BKN014 OVC041 13/12 A2998 RMK AO2
cycle: 17

Station Type Date Time Source
KAWO TAF UTC NOAA

Error!

Example: see airport list